Aircraft
DEFAULT PR-QAA Citation
RJSK
Akita Airport
UHPP
Yelizovo Airport
Pilot:: Eber
Aircraft:: Cessna Citation CJ4
Alternate: UHMM
Network: ivao
FLIGHT DETAILS
Distance: 1105nm Duration 02h 45m
Cruise Speed: Flight Level: 41000
Validation: Validated Type Charter
Flight Fuel
ZFW: 4495
Block Fuel/Initial FOB: 2663
Flight Fuel: 1413
Cargo
Passengers: 9
Cargo: 131
ROUTE
ROUTE: MUTSU3 MRE V13 TIKYU Y13 SIRAO V13 CHE Y116 AWE V8 LUBEK Y116 MVE G583 UB T577 SAMIK SAMI5N
REMARKS:
DATE
Date: 26-05-08
Departure Time: 2250
Cargo: 131
FLIGHT DETAILS
Crashed: No
Validator Comments: Validado por Rafael
Flight Rating: 100
LANDING ANALYSIS
Landing wind: 230º/6 kt
Landing heading: 334º
Landing VS:: -92 ft/min
Landing IAS:: 105 kt
Landing Force G: 1 G
Landing Bank: -3
Landing Pitch: -1
Landing Flaps: 100
Navigation Lights: ON
Landing Lights: ON
Beacon Lights: ON
Strobe Lights: ON
viserfly

ALTITUDE CHART

viserfly

MAIN EVENTS

DATE EVENT IAS ALTITUDE
2026-05-07 22:41:50 FLYacars version 1.3.5 1 304
2026-05-07 22:41:50 FLAPS 50% 2 304
2026-05-07 22:41:50 Beacon Lights ON 2 304
2026-05-07 22:41:50 Taxi Lights ON 2 304
2026-05-07 22:44:21 Starting Engine 2 0 304
2026-05-07 22:44:32 Starting Engine 1 0 304
2026-05-07 22:45:32 Aircraft taxiing to runway 1 304
2026-05-07 22:48:33 Aircraft boarding in progress 0 292
2026-05-07 22:48:33 Navigation Lights ON 0 292
2026-05-07 22:48:34 Strobe Lights ON 0 292
2026-05-07 22:49:49 Landing Lights ON 3 292
2026-05-07 22:49:49 Taxi Lights OFF 3 292
2026-05-07 22:49:51 Taxi Lights ON 4 292
2026-05-07 22:50:18 Detected Take-off roll, HDG 90, IAS 142kt, GS 141kt, G-force 1.0g, Pitch -1.5deg, Bank -0.2deg, Wind 130/04kt, Temp 12°C 142 300
2026-05-07 22:50:18 Airborne 142 300
2026-05-07 22:50:22 Gear UP, IAS 159kt, GS 158kt, ALT 23ft AGL 159 321
2026-05-07 22:50:34 FLAPS 0% 178kt, ALT 985ft 178 985
2026-05-07 22:53:12 Landing Lights OFF 237 10309
2026-05-07 22:53:12 Taxi Lights OFF 237 10309
2026-05-07 23:08:08 Aircraft on Top Of Climb at 41007ft, IAS 181kt, GS 431kt, HDG 21deg, TAT -59deg, WIND 237/93kt 181 41007
2026-05-08 00:12:09 Aircraft on Top Of Descent at 40391ft, IAS 202kt, GS 479kt, HDG 47deg, TAT -53deg, WIND 251/89kt 202 40391
2026-05-08 01:22:32 Landing Lights ON 242 9411
2026-05-08 01:22:33 Taxi Lights ON 242 9381
2026-05-08 01:33:12 Gear DOWN, IAS 223kt, GS 216kt, ALT 1896ft AGL 223 1896
2026-05-08 01:33:26 FLAPS 50% 200kt, ALT 1734ft 200 1734
2026-05-08 01:34:09 FLAPS 100% 167kt, ALT 1169ft 167 1169
2026-05-08 01:35:52 Landed at destination with a landing rate of -92fpm, G-force 1.0g, Pitch -0.7deg, Bank -3.4deg, HDG 334deg, IAS 105kt, GS 107kt, Wind 230/06kt, Temp 8°C 105 212
2026-05-08 01:36:34 Aircraft taxiing to apron 24 208
2026-05-08 01:39:22 FLAPS 50% 18 211
2026-05-08 01:43:23 Landing Lights OFF 4 215
2026-05-08 01:43:24 Taxi Lights OFF 4 215
2026-05-08 01:43:26 Strobe Lights OFF 4 215
2026-05-08 01:43:27 Navigation Lights OFF 4 215
2026-05-08 01:44:36 Aircraft at gate/stand, ground services are moving into position, disembarkation has begun. Remaining FOB 1250kg FLYacars v1.3.5 7 215
viserfly

ACARS DATA

DATE IAS GS ALTITUDE FUEL CONSUMED OAT FLIGHT STATUS
2026-05-07 22:42:20 0 2 304 0 12 PUSHBACK
2026-05-07 22:42:50 0 2 304 0 12 PUSHBACK
2026-05-07 22:43:20 0 2 304 0 12 PUSHBACK
2026-05-07 22:43:50 0 0 304 0 12 PUSHBACK
2026-05-07 22:44:20 0 0 304 0 12 PUSHBACK
2026-05-07 22:44:50 0 0 304 1 12 PUSHBACK
2026-05-07 22:45:20 0 1 304 2 12 PUSHBACK
2026-05-07 22:45:50 3 8 303 3 12 TAXI TO RUNWAY
2026-05-07 22:46:20 9 12 302 4 12 TAXI TO RUNWAY
2026-05-07 22:46:50 11 15 300 5 12 TAXI TO RUNWAY
2026-05-07 22:47:20 15 18 298 6 12 TAXI TO RUNWAY
2026-05-07 22:47:50 16 19 295 7 12 TAXI TO RUNWAY
2026-05-07 22:48:20 16 20 292 8 12 TAXI TO RUNWAY
2026-05-07 22:48:50 0 0 292 9 12 TAXI TO RUNWAY
2026-05-07 22:49:20 4 8 291 10 12 TAXI TO RUNWAY
2026-05-07 22:49:50 4 0 292 12 12 TAXI TO RUNWAY
2026-05-07 22:50:20 151 151 306 22 12 TAKEOFF
2026-05-07 22:50:50 224 226 1408 33 13 INITIAL CLIMB
2026-05-07 22:51:20 225 248 3483 43 9 CLIMB
2026-05-07 22:51:50 235 269 5334 53 6 CLIMB
2026-05-07 22:52:20 236 281 7241 64 3 CLIMB
2026-05-07 22:52:50 237 298 9032 74 0 CLIMB
2026-05-07 22:53:20 235 310 10738 85 -2 CLIMB
2026-05-07 22:53:50 237 312 12415 95 -3 CLIMB
2026-05-07 22:54:20 238 323 13992 105 -5 CLIMB
2026-05-07 22:54:50 237 335 15424 116 -8 CLIMB
2026-05-07 22:55:20 238 347 16757 126 -11 CLIMB
2026-05-07 22:55:50 237 356 18125 136 -14 CLIMB
2026-05-07 22:56:20 239 367 19416 146 -16 CLIMB
2026-05-07 22:56:50 238 375 20780 156 -17 CLIMB
2026-05-07 22:57:20 239 382 22067 166 -19 CLIMB
2026-05-07 22:57:50 238 391 23205 176 -20 CLIMB
2026-05-07 22:58:20 239 397 24335 186 -23 CLIMB
2026-05-07 22:58:50 238 401 25447 195 -26 CLIMB
2026-05-07 22:59:20 239 407 26516 205 -28 CLIMB
2026-05-07 22:59:50 239 414 27531 214 -30 CLIMB
2026-05-07 23:00:20 239 440 28365 223 -33 CLIMB
2026-05-07 23:00:50 233 440 29505 232 -35 CLIMB
2026-05-07 23:01:20 227 438 30656 241 -38 CLIMB
2026-05-07 23:01:50 223 439 31668 249 -41 CLIMB
2026-05-07 23:02:20 217 436 32706 257 -44 CLIMB
2026-05-07 23:02:50 213 441 33523 265 -46 CLIMB
2026-05-07 23:03:20 210 437 34414 272 -48 CLIMB
2026-05-07 23:03:50 205 435 35352 280 -51 CLIMB
2026-05-07 23:04:20 201 432 36185 287 -53 CLIMB
2026-05-07 23:04:50 197 430 36953 293 -56 CLIMB
2026-05-07 23:05:20 194 431 37592 300 -57 CLIMB
2026-05-07 23:05:50 190 429 38287 306 -59 CLIMB
2026-05-07 23:06:20 187 428 38938 312 -60 CLIMB
2026-05-07 23:06:50 185 427 39577 318 -60 CLIMB
2026-05-07 23:07:20 181 426 40224 324 -59 CLIMB
2026-05-07 23:07:50 179 426 40805 329 -59 CLIMB
2026-05-07 23:08:20 184 437 41042 335 -59 ENROUTE
2026-05-07 23:08:50 193 452 41074 340 -59 ENROUTE
2026-05-07 23:09:20 201 467 41061 346 -59 ENROUTE
2026-05-07 23:09:50 207 479 41031 351 -58 ENROUTE
2026-05-07 23:10:20 210 485 41030 356 -58 ENROUTE
2026-05-07 23:10:50 209 482 41035 360 -58 ENROUTE
2026-05-07 23:11:20 206 477 41032 364 -58 ENROUTE
2026-05-07 23:11:50 203 473 41001 368 -58 ENROUTE
2026-05-07 23:12:20 201 470 40994 371 -58 ENROUTE
2026-05-07 23:12:50 200 467 40986 375 -58 ENROUTE
2026-05-07 23:13:20 198 464 40983 379 -58 ENROUTE
2026-05-07 23:13:50 197 461 40982 382 -58 ENROUTE
2026-05-07 23:14:20 196 460 40960 386 -58 ENROUTE
2026-05-07 23:14:50 195 458 40954 390 -58 ENROUTE
2026-05-07 23:15:20 194 457 40949 393 -58 ENROUTE
2026-05-07 23:15:50 194 456 40948 397 -58 ENROUTE
2026-05-07 23:16:20 193 455 40945 401 -58 ENROUTE
2026-05-07 23:16:50 193 454 40943 405 -58 ENROUTE
2026-05-07 23:17:20 192 453 40943 408 -58 ENROUTE
2026-05-07 23:17:50 192 453 40942 412 -58 ENROUTE
2026-05-07 23:18:20 192 452 40940 416 -58 ENROUTE
2026-05-07 23:18:50 191 453 40912 419 -58 ENROUTE
2026-05-07 23:19:20 192 452 40910 423 -58 ENROUTE
2026-05-07 23:19:50 192 461 40911 427 -58 ENROUTE
2026-05-07 23:20:20 191 463 40912 431 -58 ENROUTE
2026-05-07 23:20:50 191 463 40913 434 -58 ENROUTE
2026-05-07 23:21:20 190 464 40890 438 -58 ENROUTE
2026-05-07 23:21:50 191 465 40851 442 -58 ENROUTE
2026-05-07 23:22:20 191 465 40852 446 -58 ENROUTE
2026-05-07 23:22:50 192 466 40855 449 -58 ENROUTE
2026-05-07 23:23:20 192 466 40855 453 -58 ENROUTE
2026-05-07 23:23:50 192 467 40848 457 -58 ENROUTE
2026-05-07 23:24:20 192 469 40822 460 -58 DESCENT
2026-05-07 23:24:50 193 469 40817 464 -58 ENROUTE
2026-05-07 23:25:20 193 469 40820 468 -58 ENROUTE
2026-05-07 23:25:50 193 470 40821 472 -58 ENROUTE
2026-05-07 23:26:20 193 471 40819 475 -58 ENROUTE
2026-05-07 23:26:50 193 470 40819 479 -58 ENROUTE
2026-05-07 23:27:20 193 471 40771 483 -57 ENROUTE
2026-05-07 23:27:50 194 473 40778 486 -57 ENROUTE
2026-05-07 23:28:20 196 484 40779 490 -57 ENROUTE
2026-05-07 23:28:50 197 490 40780 494 -57 ENROUTE
2026-05-07 23:29:20 196 489 40780 498 -57 ENROUTE
2026-05-07 23:29:50 196 487 40780 501 -57 ENROUTE
2026-05-07 23:30:20 195 487 40780 505 -57 ENROUTE
2026-05-07 23:30:50 196 488 40780 509 -57 ENROUTE
2026-05-07 23:31:20 197 489 40785 512 -57 ENROUTE
2026-05-07 23:31:50 196 489 40743 516 -57 ENROUTE
2026-05-07 23:32:20 195 488 40739 520 -57 ENROUTE
2026-05-07 23:32:50 194 485 40736 523 -57 ENROUTE
2026-05-07 23:33:20 194 484 40749 527 -57 ENROUTE
2026-05-07 23:33:50 193 482 40747 531 -57 ENROUTE
2026-05-07 23:34:20 192 482 40748 535 -57 ENROUTE
2026-05-07 23:34:50 192 481 40744 538 -58 ENROUTE
2026-05-07 23:35:20 192 478 40744 542 -58 ENROUTE
2026-05-07 23:35:50 192 478 40745 546 -58 ENROUTE
2026-05-07 23:36:20 192 478 40744 549 -58 ENROUTE
2026-05-07 23:36:50 192 478 40744 553 -58 ENROUTE
2026-05-07 23:37:20 192 479 40704 557 -57 ENROUTE
2026-05-07 23:37:50 191 478 40704 561 -57 ENROUTE
2026-05-07 23:38:20 192 478 40704 564 -57 ENROUTE
2026-05-07 23:38:50 191 478 40704 568 -57 ENROUTE
2026-05-07 23:39:20 191 477 40704 572 -57 ENROUTE
2026-05-07 23:39:50 191 477 40703 576 -57 ENROUTE
2026-05-07 23:40:20 191 477 40703 579 -57 ENROUTE
2026-05-07 23:40:50 191 477 40702 583 -57 ENROUTE
2026-05-07 23:41:20 191 477 40702 587 -57 ENROUTE
2026-05-07 23:41:50 192 478 40659 590 -57 ENROUTE
2026-05-07 23:42:20 191 475 40659 594 -57 ENROUTE
2026-05-07 23:42:50 191 475 40660 598 -57 ENROUTE
2026-05-07 23:43:20 192 475 40660 602 -57 ENROUTE
2026-05-07 23:43:50 192 475 40655 605 -57 ENROUTE
2026-05-07 23:44:20 191 474 40655 609 -57 ENROUTE
2026-05-07 23:44:50 191 474 40655 613 -57 ENROUTE
2026-05-07 23:45:20 192 474 40656 616 -57 ENROUTE
2026-05-07 23:45:50 192 474 40625 620 -56 ENROUTE
2026-05-07 23:46:20 192 474 40627 624 -56 ENROUTE
2026-05-07 23:46:50 191 474 40627 628 -56 ENROUTE
2026-05-07 23:47:20 192 474 40617 631 -56 ENROUTE
2026-05-07 23:47:50 191 473 40617 635 -56 ENROUTE
2026-05-07 23:48:20 191 473 40616 639 -56 ENROUTE
2026-05-07 23:48:50 192 473 40616 642 -56 ENROUTE
2026-05-07 23:49:20 192 472 40615 646 -56 ENROUTE
2026-05-07 23:49:50 191 472 40615 650 -56 ENROUTE
2026-05-07 23:50:20 192 472 40586 654 -56 ENROUTE
2026-05-07 23:50:50 192 472 40580 657 -56 ENROUTE
2026-05-07 23:51:20 192 471 40580 661 -56 ENROUTE
2026-05-07 23:51:50 192 471 40580 665 -56 ENROUTE
2026-05-07 23:52:20 191 471 40579 668 -56 ENROUTE
2026-05-07 23:52:50 192 471 40574 672 -56 ENROUTE
2026-05-07 23:53:20 192 470 40574 676 -56 ENROUTE
2026-05-07 23:53:50 191 470 40573 680 -56 ENROUTE
2026-05-07 23:54:20 192 470 40559 683 -56 ENROUTE
2026-05-07 23:54:50 192 469 40558 687 -56 ENROUTE
2026-05-07 23:55:20 193 471 40559 691 -56 ENROUTE
2026-05-07 23:55:50 194 473 40563 695 -56 ENROUTE
2026-05-07 23:56:20 195 475 40561 699 -56 ENROUTE
2026-05-07 23:56:50 196 477 40566 703 -56 ENROUTE
2026-05-07 23:57:20 197 478 40568 707 -56 ENROUTE
2026-05-07 23:57:50 197 479 40569 711 -56 ENROUTE
2026-05-07 23:58:20 198 481 40565 715 -56 ENROUTE
2026-05-07 23:58:50 200 482 40527 719 -55 ENROUTE
2026-05-07 23:59:20 200 483 40528 723 -55 ENROUTE
2026-05-07 23:59:50 200 483 40526 727 -55 ENROUTE
2026-05-08 00:00:20 200 483 40518 731 -55 ENROUTE
2026-05-08 00:00:50 200 484 40519 735 -55 ENROUTE
2026-05-08 00:01:20 201 484 40516 739 -55 ENROUTE
2026-05-08 00:01:50 201 484 40515 743 -55 ENROUTE
2026-05-08 00:02:20 201 484 40515 747 -55 ENROUTE
2026-05-08 00:02:50 201 484 40515 751 -55 ENROUTE
2026-05-08 00:03:20 202 484 40476 755 -54 ENROUTE
2026-05-08 00:03:50 202 484 40479 759 -54 ENROUTE
2026-05-08 00:04:20 202 483 40477 763 -54 ENROUTE
2026-05-08 00:04:50 201 483 40476 767 -54 ENROUTE
2026-05-08 00:05:20 201 483 40476 771 -54 ENROUTE
2026-05-08 00:05:50 201 483 40465 775 -54 ENROUTE
2026-05-08 00:06:20 201 482 40465 779 -54 ENROUTE
2026-05-08 00:06:50 201 482 40464 783 -54 ENROUTE
2026-05-08 00:07:20 201 482 40462 787 -54 ENROUTE
2026-05-08 00:07:50 202 482 40420 791 -54 ENROUTE
2026-05-08 00:08:20 202 482 40421 795 -54 ENROUTE
2026-05-08 00:08:50 201 481 40421 799 -54 ENROUTE
2026-05-08 00:09:20 201 481 40415 803 -54 ENROUTE
2026-05-08 00:09:50 201 480 40415 807 -54 ENROUTE
2026-05-08 00:10:20 201 480 40414 811 -54 ENROUTE
2026-05-08 00:10:50 200 480 40413 815 -54 ENROUTE
2026-05-08 00:11:20 200 479 40413 819 -53 ENROUTE
2026-05-08 00:11:50 200 479 40412 823 -53 ENROUTE
2026-05-08 00:12:20 202 480 40360 827 -53 ENROUTE
2026-05-08 00:12:50 201 479 40362 831 -53 ENROUTE
2026-05-08 00:13:20 201 478 40348 835 -53 ENROUTE
2026-05-08 00:13:50 201 477 40347 839 -53 ENROUTE
2026-05-08 00:14:20 200 476 40346 842 -53 ENROUTE
2026-05-08 00:14:50 200 476 40345 846 -53 ENROUTE
2026-05-08 00:15:20 200 475 40344 850 -53 ENROUTE
2026-05-08 00:15:50 200 475 40343 854 -53 ENROUTE
2026-05-08 00:16:20 200 475 40342 858 -53 ENROUTE
2026-05-08 00:16:50 201 475 40322 862 -52 DESCENT
2026-05-08 00:17:20 200 474 40316 866 -52 ENROUTE
2026-05-08 00:17:50 200 473 40316 870 -52 ENROUTE
2026-05-08 00:18:20 199 473 40315 874 -52 ENROUTE
2026-05-08 00:18:50 199 472 40314 878 -52 ENROUTE
2026-05-08 00:19:20 200 472 40295 882 -52 ENROUTE
2026-05-08 00:19:50 199 472 40295 886 -52 ENROUTE
2026-05-08 00:20:20 199 471 40294 889 -52 ENROUTE
2026-05-08 00:20:50 199 471 40293 893 -52 ENROUTE
2026-05-08 00:21:20 199 471 40283 897 -52 ENROUTE
2026-05-08 00:21:50 200 471 40250 901 -52 ENROUTE
2026-05-08 00:22:20 199 470 40250 905 -52 ENROUTE
2026-05-08 00:22:50 199 469 40250 909 -52 ENROUTE
2026-05-08 00:23:20 199 469 40237 913 -51 ENROUTE
2026-05-08 00:23:50 199 468 40237 917 -51 ENROUTE
2026-05-08 00:24:20 199 468 40236 920 -51 ENROUTE
2026-05-08 00:24:50 198 467 40235 924 -51 ENROUTE
2026-05-08 00:25:20 198 467 40234 928 -51 ENROUTE
2026-05-08 00:25:50 198 467 40234 932 -51 ENROUTE
2026-05-08 00:26:20 198 466 40233 936 -51 ENROUTE
2026-05-08 00:26:50 199 466 40193 940 -50 ENROUTE
2026-05-08 00:27:20 199 465 40183 944 -50 ENROUTE
2026-05-08 00:27:50 198 464 40182 947 -50 ENROUTE
2026-05-08 00:28:20 198 463 40181 951 -50 ENROUTE
2026-05-08 00:28:50 198 463 40180 955 -50 ENROUTE
2026-05-08 00:29:20 198 462 40178 959 -50 ENROUTE
2026-05-08 00:29:50 197 461 40177 963 -50 ENROUTE
2026-05-08 00:30:20 197 461 40176 967 -50 ENROUTE
2026-05-08 00:30:50 197 461 40175 970 -50 ENROUTE
2026-05-08 00:31:20 197 460 40174 974 -50 ENROUTE
2026-05-08 00:31:50 198 460 40143 978 -49 ENROUTE
2026-05-08 00:32:20 197 459 40143 982 -49 ENROUTE
2026-05-08 00:32:50 197 458 40143 986 -49 ENROUTE
2026-05-08 00:33:20 196 458 40141 989 -49 ENROUTE
2026-05-08 00:33:50 197 457 40132 993 -49 ENROUTE
2026-05-08 00:34:20 196 457 40131 997 -49 ENROUTE
2026-05-08 00:34:50 196 456 40130 1001 -49 ENROUTE
2026-05-08 00:35:20 196 456 40129 1005 -49 ENROUTE
2026-05-08 00:35:50 196 456 40119 1008 -49 ENROUTE
2026-05-08 00:36:20 196 455 40120 1012 -49 ENROUTE
2026-05-08 00:36:50 197 455 40093 1016 -48 ENROUTE
2026-05-08 00:37:20 196 454 40094 1020 -48 ENROUTE
2026-05-08 00:37:50 196 453 40093 1023 -48 ENROUTE
2026-05-08 00:38:20 196 452 40092 1027 -48 ENROUTE
2026-05-08 00:38:50 195 452 40091 1031 -48 ENROUTE
2026-05-08 00:39:20 195 451 40090 1035 -48 ENROUTE
2026-05-08 00:39:50 195 451 40089 1038 -48 ENROUTE
2026-05-08 00:40:20 195 451 40085 1042 -48 ENROUTE
2026-05-08 00:40:50 195 450 40085 1046 -48 ENROUTE
2026-05-08 00:41:20 195 450 40085 1050 -48 ENROUTE
2026-05-08 00:41:50 195 449 40084 1053 -48 ENROUTE
2026-05-08 00:42:20 195 449 40084 1057 -48 ENROUTE
2026-05-08 00:42:50 195 449 40076 1061 -48 ENROUTE
2026-05-08 00:43:20 195 448 40076 1065 -48 ENROUTE
2026-05-08 00:43:50 194 448 40075 1068 -48 ENROUTE
2026-05-08 00:44:20 194 448 40075 1072 -48 ENROUTE
2026-05-08 00:44:50 195 448 40066 1076 -48 ENROUTE
2026-05-08 00:45:20 195 447 40067 1080 -48 ENROUTE
2026-05-08 00:45:50 194 447 40067 1083 -48 ENROUTE
2026-05-08 00:46:20 194 446 40066 1087 -48 ENROUTE
2026-05-08 00:46:50 194 446 40066 1091 -48 ENROUTE
2026-05-08 00:47:20 196 446 40025 1095 -48 ENROUTE
2026-05-08 00:47:50 196 445 40025 1098 -48 ENROUTE
2026-05-08 00:48:20 195 444 40025 1102 -48 ENROUTE
2026-05-08 00:48:50 195 444 40024 1106 -48 ENROUTE
2026-05-08 00:49:20 195 443 40013 1110 -47 ENROUTE
2026-05-08 00:49:50 195 442 40013 1113 -47 ENROUTE
2026-05-08 00:50:20 194 442 40012 1117 -47 ENROUTE
2026-05-08 00:50:50 194 441 40011 1121 -47 ENROUTE
2026-05-08 00:51:20 194 441 40010 1124 -47 ENROUTE
2026-05-08 00:51:50 194 440 40010 1128 -47 ENROUTE
2026-05-08 00:52:20 194 440 40009 1132 -47 ENROUTE
2026-05-08 00:52:50 195 440 39981 1136 -47 ENROUTE
2026-05-08 00:53:20 194 439 39981 1139 -47 ENROUTE
2026-05-08 00:53:50 195 439 39977 1143 -47 ENROUTE
2026-05-08 00:54:20 194 438 39969 1147 -47 ENROUTE
2026-05-08 00:54:50 194 437 39969 1150 -47 ENROUTE
2026-05-08 00:55:20 194 437 39968 1154 -47 ENROUTE
2026-05-08 00:55:50 194 436 39967 1158 -47 ENROUTE
2026-05-08 00:56:20 194 436 39966 1162 -47 ENROUTE
2026-05-08 00:56:50 193 435 39966 1165 -47 ENROUTE
2026-05-08 00:57:20 193 435 39965 1169 -47 ENROUTE
2026-05-08 00:57:50 193 435 39965 1173 -47 ENROUTE
2026-05-08 00:58:20 194 435 39934 1176 -47 ENROUTE
2026-05-08 00:58:50 195 435 39921 1180 -46 ENROUTE
2026-05-08 00:59:20 194 434 39923 1184 -46 ENROUTE
2026-05-08 00:59:50 194 433 39922 1187 -46 ENROUTE
2026-05-08 01:00:20 193 432 39921 1191 -46 ENROUTE
2026-05-08 01:00:50 193 432 39920 1195 -46 ENROUTE
2026-05-08 01:01:20 193 432 39919 1198 -46 ENROUTE
2026-05-08 01:01:50 193 431 39918 1202 -46 ENROUTE
2026-05-08 01:02:20 193 431 39918 1206 -46 ENROUTE
2026-05-08 01:02:50 192 431 39917 1210 -46 ENROUTE
2026-05-08 01:03:20 192 431 39917 1213 -46 ENROUTE
2026-05-08 01:03:50 192 430 39917 1217 -46 ENROUTE
2026-05-08 01:04:20 194 430 39893 1221 -46 ENROUTE
2026-05-08 01:04:50 193 430 39894 1224 -46 ENROUTE
2026-05-08 01:05:20 193 429 39894 1228 -46 ENROUTE
2026-05-08 01:05:50 193 429 39893 1232 -46 ENROUTE
2026-05-08 01:06:20 196 432 39734 1235 -46 ENROUTE
2026-05-08 01:06:50 195 431 39734 1239 -46 ENROUTE
2026-05-08 01:07:20 194 430 39735 1243 -46 ENROUTE
2026-05-08 01:07:50 194 429 39735 1246 -46 ENROUTE
2026-05-08 01:08:20 198 435 39488 1250 -46 DESCENT
2026-05-08 01:08:50 218 468 38210 1254 -45 DESCENT
2026-05-08 01:09:20 231 485 36780 1257 -44 DESCENT
2026-05-08 01:09:50 231 473 35556 1259 -44 DESCENT
2026-05-08 01:10:20 232 465 34289 1261 -44 DESCENT
2026-05-08 01:10:50 235 460 32965 1263 -43 DESCENT
2026-05-08 01:11:20 238 454 31676 1265 -43 DESCENT
2026-05-08 01:11:50 240 445 30522 1267 -44 DESCENT
2026-05-08 01:12:20 250 448 29335 1270 -44 DESCENT
2026-05-08 01:12:50 260 449 28099 1273 -44 DESCENT
2026-05-08 01:13:20 274 449 26730 1276 -43 DESCENT
2026-05-08 01:13:50 274 441 26025 1280 -42 DESCENT
2026-05-08 01:14:20 286 444 24905 1284 -41 DESCENT
2026-05-08 01:14:50 285 428 23762 1288 -40 DESCENT
2026-05-08 01:15:20 285 417 22611 1291 -39 DESCENT
2026-05-08 01:15:50 282 407 21518 1294 -37 DESCENT
2026-05-08 01:16:20 282 400 20557 1298 -35 DESCENT
2026-05-08 01:16:50 283 397 19574 1302 -33 DESCENT
2026-05-08 01:17:20 283 392 18564 1306 -31 DESCENT
2026-05-08 01:17:50 286 390 17396 1309 -29 DESCENT
2026-05-08 01:18:20 284 383 16400 1313 -27 DESCENT
2026-05-08 01:18:50 282 376 15484 1317 -25 DESCENT
2026-05-08 01:19:20 283 371 14553 1320 -24 DESCENT
2026-05-08 01:19:50 285 368 13604 1324 -22 DESCENT
2026-05-08 01:20:20 288 366 12638 1327 -20 DESCENT
2026-05-08 01:20:50 269 337 11805 1329 -19 DESCENT
2026-05-08 01:21:20 249 312 11296 1331 -18 DESCENT
2026-05-08 01:21:50 246 299 10536 1332 -17 DESCENT
2026-05-08 01:22:20 243 284 9731 1334 -15 DESCENT
2026-05-08 01:22:50 243 279 8939 1336 -14 DESCENT
2026-05-08 01:23:20 241 275 8211 1337 -12 DESCENT
2026-05-08 01:23:50 241 272 7479 1339 -10 DESCENT
2026-05-08 01:24:20 233 261 6897 1341 -9 ENROUTE
2026-05-08 01:24:50 214 240 6858 1342 -9 ENROUTE
2026-05-08 01:25:20 207 231 6857 1345 -9 ENROUTE
2026-05-08 01:25:50 225 250 6861 1349 -9 ENROUTE
2026-05-08 01:26:20 223 250 6881 1352 -9 ENROUTE
2026-05-08 01:26:50 223 250 6884 1355 -9 ENROUTE
2026-05-08 01:27:20 223 232 6875 1358 -9 ENROUTE
2026-05-08 01:27:50 222 226 6879 1361 -9 ENROUTE
2026-05-08 01:28:20 221 231 6886 1364 -9 ENROUTE
2026-05-08 01:28:50 231 238 6531 1367 -8 DESCENT
2026-05-08 01:29:20 236 241 5900 1369 -8 DESCENT
2026-05-08 01:29:50 238 242 5281 1370 -6 DESCENT
2026-05-08 01:30:20 239 242 4674 1372 -5 DESCENT
2026-05-08 01:30:50 234 236 4071 1374 -4 DESCENT
2026-05-08 01:31:20 235 236 3468 1375 -2 DESCENT
2026-05-08 01:31:50 230 227 3047 1376 -1 DESCENT
2026-05-08 01:32:20 223 221 2622 1378 0 DESCENT
2026-05-08 01:32:50 222 217 2203 1379 1 DESCENT
2026-05-08 01:33:20 215 208 1798 1380 4 DESCENT
2026-05-08 01:33:50 173 164 1431 1383 8 APPROACH
2026-05-08 01:34:20 141 132 1038 1386 8 ON FINAL
2026-05-08 01:34:50 137 133 694 1390 8 ON FINAL
2026-05-08 01:35:20 133 134 407 1395 8 ON FINAL
2026-05-08 01:35:50 110 111 215 1398 8 ON FINAL
2026-05-08 01:36:20 33 35 209 1399 8 ON FINAL
2026-05-08 01:36:50 8 14 207 1400 8 TAXI TO APRON
2026-05-08 01:37:20 1 7 206 1401 8 TAXI TO APRON
2026-05-08 01:37:50 19 23 207 1402 8 TAXI TO APRON
2026-05-08 01:38:20 18 22 208 1403 8 TAXI TO APRON
2026-05-08 01:38:50 15 19 213 1404 8 TAXI TO APRON
2026-05-08 01:39:20 18 23 211 1405 8 TAXI TO APRON
2026-05-08 01:39:50 17 20 212 1406 8 TAXI TO APRON
2026-05-08 01:40:20 8 15 215 1407 8 TAXI TO APRON
2026-05-08 01:40:50 13 16 216 1408 8 TAXI TO APRON
2026-05-08 01:41:20 8 17 217 1409 8 TAXI TO APRON
2026-05-08 01:41:50 16 13 217 1410 8 TAXI TO APRON
2026-05-08 01:42:20 20 17 216 1411 8 TAXI TO APRON
2026-05-08 01:42:50 7 0 215 1411 8 TAXI TO APRON
2026-05-08 01:43:20 4 0 215 1412 8 TAXI TO APRON
2026-05-08 01:43:50 4 0 215 1413 8 TAXI TO APRON
2026-05-08 01:44:20 6 0 215 1413 8 TAXI TO APRON
  • Join our VA!

    It has been 11 years of great learning, friendships, and stories.

  • Sign up now!